sensor_id;sensor_type;location;lat;lon;timestamp;P1;durP1;ratioP1;P2;durP2;ratioP2
11486;SDS011;10510;47.942;9.442;2023-05-10T00:00:14;0.47;;;0.20;;
11486;SDS011;10510;47.942;9.442;2023-05-10T00:02:15;0.20;;;0.20;;
11486;SDS011;10510;47.942;9.442;2023-05-10T00:04:15;0.43;;;0.20;;
11486;SDS011;10510;47.942;9.442;2023-05-10T00:06:15;1.05;;;0.15;;
11486;SDS011;10510;47.942;9.442;2023-05-10T00:08:16;0.30;;;0.20;;
11486;SDS011;10510;47.942;9.442;2023-05-10T00:10:16;0.20;;;0.20;;
11486;SDS011;10510;47.942;9.442;2023-05-10T00:12:16;0.50;;;0.20;;
11486;SDS011;10510;47.942;9.442;2023-05-10T00:14:17;1.73;;;0.30;;
11486;SDS011;10510;47.942;9.442;2023-05-10T00:16:18;0.75;;;0.22;;
11486;SDS011;10510;47.942;9.442;2023-05-10T00:18:18;1.02;;;0.82;;
11486;SDS011;10510;47.942;9.442;2023-05-10T00:20:18;0.30;;;0.30;;
11486;SDS011;10510;47.942;9.442;2023-05-10T00:22:18;0.30;;;0.30;;
11486;SDS011;10510;47.942;9.442;2023-05-10T00:24:19;0.20;;;0.20;;
11486;SDS011;10510;47.942;9.442;2023-05-10T00:26:19;0.20;;;0.20;;
11486;SDS011;10510;47.942;9.442;2023-05-10T00:28:20;0.47;;;0.30;;
11486;SDS011;10510;47.942;9.442;2023-05-10T00:30:20;0.30;;;0.30;;
11486;SDS011;10510;47.942;9.442;2023-05-10T00:32:20;0.20;;;0.20;;
11486;SDS011;10510;47.942;9.442;2023-05-10T00:34:21;0.40;;;0.40;;
11486;SDS011;10510;47.942;9.442;2023-05-10T00:36:21;0.55;;;0.40;;
11486;SDS011;10510;47.942;9.442;2023-05-10T00:38:21;0.98;;;0.30;;
11486;SDS011;10510;47.942;9.442;2023-05-10T00:40:21;0.20;;;0.20;;
11486;SDS011;10510;47.942;9.442;2023-05-10T00:42:22;0.32;;;0.30;;
11486;SDS011;10510;47.942;9.442;2023-05-10T00:44:22;0.75;;;0.30;;
11486;SDS011;10510;47.942;9.442;2023-05-10T00:46:23;0.43;;;0.30;;
11486;SDS011;10510;47.942;9.442;2023-05-10T00:48:23;0.30;;;0.30;;
11486;SDS011;10510;47.942;9.442;2023-05-10T00:50:23;0.20;;;0.20;;
11486;SDS011;10510;47.942;9.442;2023-05-10T00:52:24;0.30;;;0.30;;
11486;SDS011;10510;47.942;9.442;2023-05-10T00:54:25;0.30;;;0.20;;
11486;SDS011;10510;47.942;9.442;2023-05-10T00:56:26;0.63;;;0.40;;
11486;SDS011;10510;47.942;9.442;2023-05-10T00:58:27;1.75;;;0.30;;
11486;SDS011;10510;47.942;9.442;2023-05-10T01:00:28;0.32;;;0.30;;
11486;SDS011;10510;47.942;9.442;2023-05-10T01:02:29;0.68;;;0.20;;
11486;SDS011;10510;47.942;9.442;2023-05-10T01:04:29;0.20;;;0.20;;
11486;SDS011;10510;47.942;9.442;2023-05-10T01:06:30;0.30;;;0.30;;
11486;SDS011;10510;47.942;9.442;2023-05-10T01:08:30;0.20;;;0.20;;
11486;SDS011;10510;47.942;9.442;2023-05-10T01:10:31;0.30;;;0.30;;
11486;SDS011;10510;47.942;9.442;2023-05-10T01:12:32;0.68;;;0.43;;
11486;SDS011;10510;47.942;9.442;2023-05-10T01:14:36;0.20;;;0.20;;
11486;SDS011;10510;47.942;9.442;2023-05-10T01:16:38;1.15;;;0.35;;
11486;SDS011;10510;47.942;9.442;2023-05-10T01:18:40;1.10;;;0.50;;
11486;SDS011;10510;47.942;9.442;2023-05-10T01:20:43;0.68;;;0.40;;
11486;SDS011;10510;47.942;9.442;2023-05-10T01:30:01;0.30;;;0.30;;
11486;SDS011;10510;47.942;9.442;2023-05-10T01:32:31;0.32;;;0.32;;
11486;SDS011;10510;47.942;9.442;2023-05-10T01:35:02;2.05;;;0.45;;
11486;SDS011;10510;47.942;9.442;2023-05-10T01:37:09;0.60;;;0.40;;
11486;SDS011;10510;47.942;9.442;2023-05-10T01:41:17;0.30;;;0.30;;
11486;SDS011;10510;47.942;9.442;2023-05-10T01:43:26;0.60;;;0.30;;
11486;SDS011;10510;47.942;9.442;2023-05-10T01:45:35;1.63;;;0.50;;
11486;SDS011;10510;47.942;9.442;2023-05-10T01:47:40;0.73;;;0.57;;
11486;SDS011;10510;47.942;9.442;2023-05-10T01:49:47;0.30;;;0.30;;
11486;SDS011;10510;47.942;9.442;2023-05-10T01:51:52;0.52;;;0.30;;
11486;SDS011;10510;47.942;9.442;2023-05-10T01:54:01;0.95;;;0.50;;
11486;SDS011;10510;47.942;9.442;2023-05-10T01:56:03;3.35;;;0.60;;
11486;SDS011;10510;47.942;9.442;2023-05-10T01:58:09;3.55;;;0.70;;
11486;SDS011;10510;47.942;9.442;2023-05-10T02:00:13;3.42;;;0.70;;
11486;SDS011;10510;47.942;9.442;2023-05-10T02:02:14;1.40;;;0.63;;
11486;SDS011;10510;47.942;9.442;2023-05-10T02:04:16;0.90;;;0.70;;
11486;SDS011;10510;47.942;9.442;2023-05-10T02:06:19;2.60;;;1.33;;
11486;SDS011;10510;47.942;9.442;2023-05-10T02:08:22;2.03;;;1.27;;
11486;SDS011;10510;47.942;9.442;2023-05-10T02:10:23;3.70;;;1.83;;
11486;SDS011;10510;47.942;9.442;2023-05-10T02:12:23;2.15;;;1.30;;
11486;SDS011;10510;47.942;9.442;2023-05-10T02:14:25;1.80;;;1.30;;
11486;SDS011;10510;47.942;9.442;2023-05-10T02:16:26;2.42;;;1.30;;
11486;SDS011;10510;47.942;9.442;2023-05-10T02:18:30;4.07;;;1.50;;
11486;SDS011;10510;47.942;9.442;2023-05-10T02:20:33;2.30;;;1.50;;
11486;SDS011;10510;47.942;9.442;2023-05-10T02:22:35;2.47;;;1.27;;
11486;SDS011;10510;47.942;9.442;2023-05-10T02:24:38;6.57;;;1.33;;
11486;SDS011;10510;47.942;9.442;2023-05-10T02:26:39;2.08;;;1.48;;
11486;SDS011;10510;47.942;9.442;2023-05-10T02:28:40;2.17;;;1.23;;
11486;SDS011;10510;47.942;9.442;2023-05-10T02:30:43;1.92;;;1.38;;
11486;SDS011;10510;47.942;9.442;2023-05-10T02:32:44;2.13;;;1.30;;
11486;SDS011;10510;47.942;9.442;2023-05-10T02:34:45;3.42;;;1.02;;
11486;SDS011;10510;47.942;9.442;2023-05-10T02:36:52;1.70;;;1.27;;
11486;SDS011;10510;47.942;9.442;2023-05-10T02:38:53;1.60;;;0.95;;
11486;SDS011;10510;47.942;9.442;2023-05-10T02:40:54;2.22;;;1.10;;
11486;SDS011;10510;47.942;9.442;2023-05-10T02:42:56;2.25;;;1.27;;
11486;SDS011;10510;47.942;9.442;2023-05-10T02:44:59;2.20;;;1.80;;
11486;SDS011;10510;47.942;9.442;2023-05-10T02:47:01;2.22;;;1.58;;
11486;SDS011;10510;47.942;9.442;2023-05-10T02:49:01;3.10;;;1.20;;
11486;SDS011;10510;47.942;9.442;2023-05-10T02:51:03;2.15;;;1.35;;
11486;SDS011;10510;47.942;9.442;2023-05-10T02:53:09;1.52;;;1.13;;
11486;SDS011;10510;47.942;9.442;2023-05-10T02:55:12;1.45;;;1.10;;
11486;SDS011;10510;47.942;9.442;2023-05-10T02:57:16;1.90;;;1.13;;
11486;SDS011;10510;47.942;9.442;2023-05-10T02:59:20;6.15;;;1.08;;
11486;SDS011;10510;47.942;9.442;2023-05-10T03:01:20;1.70;;;1.15;;
11486;SDS011;10510;47.942;9.442;2023-05-10T03:03:20;1.17;;;0.90;;
11486;SDS011;10510;47.942;9.442;2023-05-10T03:05:21;2.45;;;1.23;;
11486;SDS011;10510;47.942;9.442;2023-05-10T03:07:21;1.00;;;0.90;;
11486;SDS011;10510;47.942;9.442;2023-05-10T03:09:22;1.45;;;1.00;;
11486;SDS011;10510;47.942;9.442;2023-05-10T03:13:34;1.98;;;0.65;;
11486;SDS011;10510;47.942;9.442;2023-05-10T03:17:54;1.65;;;1.00;;
11486;SDS011;10510;47.942;9.442;2023-05-10T03:19:58;0.70;;;0.70;;
11486;SDS011;10510;47.942;9.442;2023-05-10T03:22:03;0.70;;;0.60;;
11486;SDS011;10510;47.942;9.442;2023-05-10T03:24:10;0.68;;;0.50;;
11486;SDS011;10510;47.942;9.442;2023-05-10T03:26:20;0.88;;;0.70;;
11486;SDS011;10510;47.942;9.442;2023-05-10T03:28:25;1.35;;;1.00;;
11486;SDS011;10510;47.942;9.442;2023-05-10T03:30:27;0.95;;;0.82;;
11486;SDS011;10510;47.942;9.442;2023-05-10T03:32:28;4.43;;;1.23;;
11486;SDS011;10510;47.942;9.442;2023-05-10T03:34:30;5.88;;;1.20;;
11486;SDS011;10510;47.942;9.442;2023-05-10T03:36:31;2.28;;;1.02;;
11486;SDS011;10510;47.942;9.442;2023-05-10T03:38:31;1.90;;;1.25;;
11486;SDS011;10510;47.942;9.442;2023-05-10T03:40:32;3.35;;;1.58;;
11486;SDS011;10510;47.942;9.442;2023-05-10T03:42:32;3.17;;;1.30;;
11486;SDS011;10510;47.942;9.442;2023-05-10T03:44:32;1.98;;;1.20;;
11486;SDS011;10510;47.942;9.442;2023-05-10T03:46:33;5.05;;;1.90;;
11486;SDS011;10510;47.942;9.442;2023-05-10T03:48:34;5.22;;;3.17;;
11486;SDS011;10510;47.942;9.442;2023-05-10T03:50:34;3.40;;;1.45;;
11486;SDS011;10510;47.942;9.442;2023-05-10T03:52:35;9.05;;;3.60;;
11486;SDS011;10510;47.942;9.442;2023-05-10T03:54:35;2.13;;;1.60;;
11486;SDS011;10510;47.942;9.442;2023-05-10T03:56:35;7.03;;;2.95;;
11486;SDS011;10510;47.942;9.442;2023-05-10T03:58:35;5.00;;;2.50;;
11486;SDS011;10510;47.942;9.442;2023-05-10T04:00:36;1.92;;;1.58;;
11486;SDS011;10510;47.942;9.442;2023-05-10T04:02:37;1.38;;;1.00;;
11486;SDS011;10510;47.942;9.442;2023-05-10T04:04:37;2.28;;;1.48;;
11486;SDS011;10510;47.942;9.442;2023-05-10T04:06:37;3.80;;;1.10;;
11486;SDS011;10510;47.942;9.442;2023-05-10T04:08:38;3.30;;;2.03;;
11486;SDS011;10510;47.942;9.442;2023-05-10T04:10:38;2.22;;;1.80;;
11486;SDS011;10510;47.942;9.442;2023-05-10T04:12:39;4.82;;;1.67;;
11486;SDS011;10510;47.942;9.442;2023-05-10T04:14:39;2.38;;;1.90;;
11486;SDS011;10510;47.942;9.442;2023-05-10T04:16:40;3.47;;;2.20;;
11486;SDS011;10510;47.942;9.442;2023-05-10T04:18:40;5.45;;;1.40;;
11486;SDS011;10510;47.942;9.442;2023-05-10T04:20:41;4.45;;;1.55;;
11486;SDS011;10510;47.942;9.442;2023-05-10T04:22:41;3.95;;;1.73;;
11486;SDS011;10510;47.942;9.442;2023-05-10T04:24:41;2.10;;;1.20;;
11486;SDS011;10510;47.942;9.442;2023-05-10T04:26:41;1.30;;;1.00;;
11486;SDS011;10510;47.942;9.442;2023-05-10T04:28:42;1.48;;;1.02;;
11486;SDS011;10510;47.942;9.442;2023-05-10T04:30:42;0.75;;;0.70;;
11486;SDS011;10510;47.942;9.442;2023-05-10T04:32:42;1.95;;;0.88;;
11486;SDS011;10510;47.942;9.442;2023-05-10T04:34:43;1.30;;;0.90;;
11486;SDS011;10510;47.942;9.442;2023-05-10T04:36:43;2.72;;;1.00;;
11486;SDS011;10510;47.942;9.442;2023-05-10T04:38:44;2.38;;;1.00;;
11486;SDS011;10510;47.942;9.442;2023-05-10T04:40:44;1.63;;;0.95;;
11486;SDS011;10510;47.942;9.442;2023-05-10T04:42:44;1.48;;;1.10;;
11486;SDS011;10510;47.942;9.442;2023-05-10T04:44:44;6.43;;;1.10;;
11486;SDS011;10510;47.942;9.442;2023-05-10T04:46:45;1.38;;;0.90;;
11486;SDS011;10510;47.942;9.442;2023-05-10T04:48:45;2.35;;;0.82;;
11486;SDS011;10510;47.942;9.442;2023-05-10T04:50:45;3.25;;;1.00;;
11486;SDS011;10510;47.942;9.442;2023-05-10T04:52:45;1.73;;;1.45;;
11486;SDS011;10510;47.942;9.442;2023-05-10T04:54:46;2.85;;;1.00;;
11486;SDS011;10510;47.942;9.442;2023-05-10T04:56:46;2.97;;;1.20;;
11486;SDS011;10510;47.942;9.442;2023-05-10T04:58:46;1.08;;;0.80;;
11486;SDS011;10510;47.942;9.442;2023-05-10T05:00:47;2.25;;;0.90;;
11486;SDS011;10510;47.942;9.442;2023-05-10T05:02:47;1.17;;;0.70;;
11486;SDS011;10510;47.942;9.442;2023-05-10T05:04:47;2.10;;;1.00;;
11486;SDS011;10510;47.942;9.442;2023-05-10T05:06:47;1.80;;;1.13;;
11486;SDS011;10510;47.942;9.442;2023-05-10T05:08:47;2.35;;;1.30;;
11486;SDS011;10510;47.942;9.442;2023-05-10T05:10:49;1.75;;;1.10;;
11486;SDS011;10510;47.942;9.442;2023-05-10T05:12:50;2.25;;;1.00;;
11486;SDS011;10510;47.942;9.442;2023-05-10T05:14:50;1.00;;;0.80;;
11486;SDS011;10510;47.942;9.442;2023-05-10T05:16:51;2.85;;;1.10;;
11486;SDS011;10510;47.942;9.442;2023-05-10T05:18:52;1.25;;;1.10;;
11486;SDS011;10510;47.942;9.442;2023-05-10T05:20:52;3.38;;;1.67;;
11486;SDS011;10510;47.942;9.442;2023-05-10T05:22:52;3.97;;;1.17;;
11486;SDS011;10510;47.942;9.442;2023-05-10T05:24:56;2.00;;;1.20;;
11486;SDS011;10510;47.942;9.442;2023-05-10T05:26:56;3.45;;;1.52;;
11486;SDS011;10510;47.942;9.442;2023-05-10T05:28:57;2.63;;;1.20;;
11486;SDS011;10510;47.942;9.442;2023-05-10T05:30:57;2.65;;;1.73;;
11486;SDS011;10510;47.942;9.442;2023-05-10T05:32:57;2.42;;;1.77;;
11486;SDS011;10510;47.942;9.442;2023-05-10T05:34:57;4.22;;;1.42;;
11486;SDS011;10510;47.942;9.442;2023-05-10T05:36:58;3.92;;;1.40;;
11486;SDS011;10510;47.942;9.442;2023-05-10T05:38:58;1.83;;;1.40;;
11486;SDS011;10510;47.942;9.442;2023-05-10T05:40:58;4.93;;;1.33;;
11486;SDS011;10510;47.942;9.442;2023-05-10T05:42:59;4.47;;;1.40;;
11486;SDS011;10510;47.942;9.442;2023-05-10T05:44:59;2.67;;;1.20;;
11486;SDS011;10510;47.942;9.442;2023-05-10T05:46:59;3.58;;;1.67;;
11486;SDS011;10510;47.942;9.442;2023-05-10T05:48:59;3.47;;;1.42;;
11486;SDS011;10510;47.942;9.442;2023-05-10T05:51:00;3.63;;;0.98;;
11486;SDS011;10510;47.942;9.442;2023-05-10T05:53:00;2.40;;;1.55;;
11486;SDS011;10510;47.942;9.442;2023-05-10T05:55:00;2.50;;;1.52;;
11486;SDS011;10510;47.942;9.442;2023-05-10T05:57:01;2.97;;;1.63;;
11486;SDS011;10510;47.942;9.442;2023-05-10T05:59:01;2.10;;;1.25;;
11486;SDS011;10510;47.942;9.442;2023-05-10T06:01:01;2.75;;;1.15;;
11486;SDS011;10510;47.942;9.442;2023-05-10T06:03:02;1.77;;;1.38;;
11486;SDS011;10510;47.942;9.442;2023-05-10T06:05:02;5.30;;;1.40;;
11486;SDS011;10510;47.942;9.442;2023-05-10T06:07:03;2.75;;;1.65;;
11486;SDS011;10510;47.942;9.442;2023-05-10T06:09:03;2.45;;;1.52;;
11486;SDS011;10510;47.942;9.442;2023-05-10T06:11:04;3.38;;;1.48;;
11486;SDS011;10510;47.942;9.442;2023-05-10T06:13:04;2.55;;;1.42;;
11486;SDS011;10510;47.942;9.442;2023-05-10T06:15:05;4.45;;;1.58;;
11486;SDS011;10510;47.942;9.442;2023-05-10T06:17:05;5.13;;;1.63;;
11486;SDS011;10510;47.942;9.442;2023-05-10T06:19:06;3.70;;;1.73;;
11486;SDS011;10510;47.942;9.442;2023-05-10T06:21:07;6.20;;;1.85;;
11486;SDS011;10510;47.942;9.442;2023-05-10T06:23:07;4.18;;;1.70;;
11486;SDS011;10510;47.942;9.442;2023-05-10T06:25:08;3.00;;;1.80;;
11486;SDS011;10510;47.942;9.442;2023-05-10T06:27:09;3.30;;;1.63;;
11486;SDS011;10510;47.942;9.442;2023-05-10T06:29:09;4.15;;;2.00;;
11486;SDS011;10510;47.942;9.442;2023-05-10T06:31:09;2.33;;;1.98;;
11486;SDS011;10510;47.942;9.442;2023-05-10T06:33:11;2.20;;;1.85;;
11486;SDS011;10510;47.942;9.442;2023-05-10T06:35:12;3.17;;;2.10;;
11486;SDS011;10510;47.942;9.442;2023-05-10T06:37:12;2.38;;;1.83;;
11486;SDS011;10510;47.942;9.442;2023-05-10T06:39:12;3.22;;;1.83;;
11486;SDS011;10510;47.942;9.442;2023-05-10T06:41:12;2.75;;;1.80;;
11486;SDS011;10510;47.942;9.442;2023-05-10T06:43:13;2.95;;;1.85;;
11486;SDS011;10510;47.942;9.442;2023-05-10T06:45:14;2.60;;;1.60;;
11486;SDS011;10510;47.942;9.442;2023-05-10T06:47:15;2.20;;;1.85;;
11486;SDS011;10510;47.942;9.442;2023-05-10T06:49:15;2.28;;;1.50;;
11486;SDS011;10510;47.942;9.442;2023-05-10T06:51:15;3.83;;;1.77;;
11486;SDS011;10510;47.942;9.442;2023-05-10T06:53:16;2.83;;;1.65;;
11486;SDS011;10510;47.942;9.442;2023-05-10T06:55:16;3.92;;;1.45;;
11486;SDS011;10510;47.942;9.442;2023-05-10T06:57:16;4.70;;;1.30;;
11486;SDS011;10510;47.942;9.442;2023-05-10T06:59:17;2.30;;;1.17;;
11486;SDS011;10510;47.942;9.442;2023-05-10T07:01:19;3.55;;;1.48;;
11486;SDS011;10510;47.942;9.442;2023-05-10T07:03:19;3.25;;;1.80;;
11486;SDS011;10510;47.942;9.442;2023-05-10T07:05:20;2.42;;;1.80;;
11486;SDS011;10510;47.942;9.442;2023-05-10T07:07:20;1.98;;;1.77;;
11486;SDS011;10510;47.942;9.442;2023-05-10T07:09:21;1.85;;;1.45;;
11486;SDS011;10510;47.942;9.442;2023-05-10T07:11:21;3.67;;;1.33;;
11486;SDS011;10510;47.942;9.442;2023-05-10T07:13:21;3.47;;;2.05;;
11486;SDS011;10510;47.942;9.442;2023-05-10T07:15:22;2.72;;;1.73;;
11486;SDS011;10510;47.942;9.442;2023-05-10T07:17:22;1.88;;;1.30;;
11486;SDS011;10510;47.942;9.442;2023-05-10T07:19:23;1.83;;;1.40;;
11486;SDS011;10510;47.942;9.442;2023-05-10T07:21:23;1.70;;;1.17;;
11486;SDS011;10510;47.942;9.442;2023-05-10T07:23:24;4.45;;;1.50;;
11486;SDS011;10510;47.942;9.442;2023-05-10T07:25:24;3.50;;;1.40;;
11486;SDS011;10510;47.942;9.442;2023-05-10T07:27:25;1.92;;;1.17;;
11486;SDS011;10510;47.942;9.442;2023-05-10T07:29:25;1.63;;;1.33;;
11486;SDS011;10510;47.942;9.442;2023-05-10T07:31:25;4.70;;;1.60;;
11486;SDS011;10510;47.942;9.442;2023-05-10T07:33:26;6.50;;;2.85;;
11486;SDS011;10510;47.942;9.442;2023-05-10T07:35:26;2.17;;;1.50;;
11486;SDS011;10510;47.942;9.442;2023-05-10T07:37:26;4.13;;;1.70;;
11486;SDS011;10510;47.942;9.442;2023-05-10T07:39:27;2.75;;;1.55;;
11486;SDS011;10510;47.942;9.442;2023-05-10T07:41:27;3.40;;;1.70;;
11486;SDS011;10510;47.942;9.442;2023-05-10T07:43:27;3.47;;;1.95;;
11486;SDS011;10510;47.942;9.442;2023-05-10T07:45:28;2.45;;;2.10;;
11486;SDS011;10510;47.942;9.442;2023-05-10T07:47:28;5.82;;;2.15;;
11486;SDS011;10510;47.942;9.442;2023-05-10T07:49:28;4.93;;;2.05;;
11486;SDS011;10510;47.942;9.442;2023-05-10T07:51:29;4.22;;;1.88;;
11486;SDS011;10510;47.942;9.442;2023-05-10T07:53:29;3.42;;;1.40;;
11486;SDS011;10510;47.942;9.442;2023-05-10T07:55:29;2.65;;;1.83;;
11486;SDS011;10510;47.942;9.442;2023-05-10T07:57:30;3.05;;;1.80;;
11486;SDS011;10510;47.942;9.442;2023-05-10T07:59:30;2.42;;;1.60;;
11486;SDS011;10510;47.942;9.442;2023-05-10T08:01:31;1.42;;;1.33;;
11486;SDS011;10510;47.942;9.442;2023-05-10T08:03:32;1.90;;;1.52;;
11486;SDS011;10510;47.942;9.442;2023-05-10T08:05:32;2.20;;;1.42;;
11486;SDS011;10510;47.942;9.442;2023-05-10T08:07:33;2.13;;;1.67;;
11486;SDS011;10510;47.942;9.442;2023-05-10T08:09:33;1.90;;;1.30;;
11486;SDS011;10510;47.942;9.442;2023-05-10T08:11:33;1.80;;;1.25;;
11486;SDS011;10510;47.942;9.442;2023-05-10T08:13:34;2.33;;;1.30;;
11486;SDS011;10510;47.942;9.442;2023-05-10T08:15:34;1.85;;;1.38;;
11486;SDS011;10510;47.942;9.442;2023-05-10T08:17:34;5.82;;;1.50;;
11486;SDS011;10510;47.942;9.442;2023-05-10T08:19:35;4.40;;;1.95;;
11486;SDS011;10510;47.942;9.442;2023-05-10T08:21:35;1.55;;;1.23;;
11486;SDS011;10510;47.942;9.442;2023-05-10T08:23:36;2.50;;;1.38;;
11486;SDS011;10510;47.942;9.442;2023-05-10T08:25:36;2.47;;;1.25;;
11486;SDS011;10510;47.942;9.442;2023-05-10T08:27:36;1.92;;;1.10;;
11486;SDS011;10510;47.942;9.442;2023-05-10T08:29:37;1.73;;;1.20;;
11486;SDS011;10510;47.942;9.442;2023-05-10T08:31:37;5.80;;;1.92;;
11486;SDS011;10510;47.942;9.442;2023-05-10T08:33:38;1.35;;;1.00;;
11486;SDS011;10510;47.942;9.442;2023-05-10T08:35:38;3.63;;;1.15;;
11486;SDS011;10510;47.942;9.442;2023-05-10T08:37:38;3.20;;;1.10;;
11486;SDS011;10510;47.942;9.442;2023-05-10T08:39:38;7.68;;;1.27;;
11486;SDS011;10510;47.942;9.442;2023-05-10T08:41:39;2.15;;;1.02;;
11486;SDS011;10510;47.942;9.442;2023-05-10T08:43:43;1.15;;;0.80;;
11486;SDS011;10510;47.942;9.442;2023-05-10T08:45:46;0.98;;;0.82;;
11486;SDS011;10510;47.942;9.442;2023-05-10T08:47:46;3.72;;;1.10;;
11486;SDS011;10510;47.942;9.442;2023-05-10T08:49:47;2.33;;;1.10;;
11486;SDS011;10510;47.942;9.442;2023-05-10T08:51:51;1.67;;;0.88;;
11486;SDS011;10510;47.942;9.442;2023-05-10T08:53:54;6.05;;;1.00;;
11486;SDS011;10510;47.942;9.442;2023-05-10T08:55:55;2.90;;;1.02;;
11486;SDS011;10510;47.942;9.442;2023-05-10T08:57:55;2.38;;;0.82;;
11486;SDS011;10510;47.942;9.442;2023-05-10T08:59:56;2.65;;;1.00;;
11486;SDS011;10510;47.942;9.442;2023-05-10T09:01:59;2.38;;;0.90;;
11486;SDS011;10510;47.942;9.442;2023-05-10T09:04:00;4.00;;;1.10;;
11486;SDS011;10510;47.942;9.442;2023-05-10T09:06:00;1.15;;;0.80;;
11486;SDS011;10510;47.942;9.442;2023-05-10T09:08:01;1.23;;;0.80;;
11486;SDS011;10510;47.942;9.442;2023-05-10T09:10:01;3.08;;;0.85;;
11486;SDS011;10510;47.942;9.442;2023-05-10T09:12:02;1.02;;;0.70;;
11486;SDS011;10510;47.942;9.442;2023-05-10T09:14:03;1.02;;;0.77;;
11486;SDS011;10510;47.942;9.442;2023-05-10T09:16:04;1.38;;;1.00;;
11486;SDS011;10510;47.942;9.442;2023-05-10T09:18:04;3.30;;;0.90;;
11486;SDS011;10510;47.942;9.442;2023-05-10T09:20:05;0.93;;;0.70;;
11486;SDS011;10510;47.942;9.442;2023-05-10T09:22:06;0.77;;;0.60;;
11486;SDS011;10510;47.942;9.442;2023-05-10T09:24:07;0.82;;;0.50;;
11486;SDS011;10510;47.942;9.442;2023-05-10T09:26:08;1.58;;;0.90;;
11486;SDS011;10510;47.942;9.442;2023-05-10T09:28:08;5.47;;;0.88;;
11486;SDS011;10510;47.942;9.442;2023-05-10T09:30:10;1.20;;;0.50;;
11486;SDS011;10510;47.942;9.442;2023-05-10T09:32:11;1.00;;;0.50;;
11486;SDS011;10510;47.942;9.442;2023-05-10T09:34:11;0.77;;;0.60;;
11486;SDS011;10510;47.942;9.442;2023-05-10T09:36:11;2.58;;;0.70;;
11486;SDS011;10510;47.942;9.442;2023-05-10T09:38:12;1.40;;;0.82;;
11486;SDS011;10510;47.942;9.442;2023-05-10T09:40:13;0.50;;;0.50;;
11486;SDS011;10510;47.942;9.442;2023-05-10T09:42:17;0.75;;;0.50;;
11486;SDS011;10510;47.942;9.442;2023-05-10T09:44:18;1.90;;;0.60;;
11486;SDS011;10510;47.942;9.442;2023-05-10T09:46:19;1.38;;;0.65;;
11486;SDS011;10510;47.942;9.442;2023-05-10T09:48:21;0.60;;;0.40;;
11486;SDS011;10510;47.942;9.442;2023-05-10T09:50:25;0.55;;;0.40;;
11486;SDS011;10510;47.942;9.442;2023-05-10T09:52:25;0.93;;;0.52;;
11486;SDS011;10510;47.942;9.442;2023-05-10T09:54:25;1.23;;;0.55;;
11486;SDS011;10510;47.942;9.442;2023-05-10T09:56:32;0.50;;;0.50;;
11486;SDS011;10510;47.942;9.442;2023-05-10T09:58:36;0.40;;;0.40;;
11486;SDS011;10510;47.942;9.442;2023-05-10T10:00:38;1.08;;;0.30;;
11486;SDS011;10510;47.942;9.442;2023-05-10T10:02:44;0.75;;;0.30;;
11486;SDS011;10510;47.942;9.442;2023-05-10T10:04:46;2.45;;;0.20;;
11486;SDS011;10510;47.942;9.442;2023-05-10T10:07:04;0.17;;;0.17;;
11486;SDS011;10510;47.942;9.442;2023-05-10T10:09:06;0.20;;;0.20;;
11486;SDS011;10510;47.942;9.442;2023-05-10T10:11:06;0.32;;;0.10;;
11486;SDS011;10510;47.942;9.442;2023-05-10T10:13:07;1.05;;;0.60;;
11486;SDS011;10510;47.942;9.442;2023-05-10T10:15:08;5.90;;;3.75;;
11486;SDS011;10510;47.942;9.442;2023-05-10T10:17:09;1.88;;;1.20;;
11486;SDS011;10510;47.942;9.442;2023-05-10T10:19:09;1.42;;;1.20;;
11486;SDS011;10510;47.942;9.442;2023-05-10T10:21:10;7.35;;;3.08;;
11486;SDS011;10510;47.942;9.442;2023-05-10T10:23:12;9.38;;;5.10;;
11486;SDS011;10510;47.942;9.442;2023-05-10T10:25:13;4.13;;;1.30;;
11486;SDS011;10510;47.942;9.442;2023-05-10T10:29:23;3.00;;;1.17;;
11486;SDS011;10510;47.942;9.442;2023-05-10T10:31:39;3.63;;;0.90;;
11486;SDS011;10510;47.942;9.442;2023-05-10T10:36:05;1.13;;;0.55;;
11486;SDS011;10510;47.942;9.442;2023-05-10T10:38:07;0.30;;;0.30;;
11486;SDS011;10510;47.942;9.442;2023-05-10T10:42:46;2.22;;;1.00;;
11486;SDS011;10510;47.942;9.442;2023-05-10T10:44:47;2.35;;;0.80;;
11486;SDS011;10510;47.942;9.442;2023-05-10T10:49:14;2.77;;;1.30;;
11486;SDS011;10510;47.942;9.442;2023-05-10T10:51:14;1.48;;;0.77;;
11486;SDS011;10510;47.942;9.442;2023-05-10T10:53:15;1.38;;;0.90;;
11486;SDS011;10510;47.942;9.442;2023-05-10T10:55:19;0.80;;;0.70;;
11486;SDS011;10510;47.942;9.442;2023-05-10T10:57:23;5.78;;;0.80;;
11486;SDS011;10510;47.942;9.442;2023-05-10T10:59:26;1.90;;;0.70;;
11486;SDS011;10510;47.942;9.442;2023-05-10T11:01:32;1.77;;;0.60;;
11486;SDS011;10510;47.942;9.442;2023-05-10T11:03:36;2.35;;;0.63;;
11486;SDS011;10510;47.942;9.442;2023-05-10T11:07:54;2.22;;;0.65;;
11486;SDS011;10510;47.942;9.442;2023-05-10T11:09:55;3.72;;;1.15;;
11486;SDS011;10510;47.942;9.442;2023-05-10T11:11:56;1.08;;;0.75;;
11486;SDS011;10510;47.942;9.442;2023-05-10T11:14:02;1.27;;;0.50;;
11486;SDS011;10510;47.942;9.442;2023-05-10T11:16:14;0.55;;;0.30;;
11486;SDS011;10510;47.942;9.442;2023-05-10T11:18:29;0.68;;;0.40;;
11486;SDS011;10510;47.942;9.442;2023-05-10T11:20:38;2.38;;;0.40;;
11486;SDS011;10510;47.942;9.442;2023-05-10T11:22:51;3.17;;;0.82;;
11486;SDS011;10510;47.942;9.442;2023-05-10T11:24:56;2.45;;;0.50;;
11486;SDS011;10510;47.942;9.442;2023-05-10T11:26:58;1.73;;;0.60;;
11486;SDS011;10510;47.942;9.442;2023-05-10T11:28:58;1.20;;;0.60;;
11486;SDS011;10510;47.942;9.442;2023-05-10T11:31:00;1.17;;;0.60;;
11486;SDS011;10510;47.942;9.442;2023-05-10T11:33:01;2.67;;;0.75;;
11486;SDS011;10510;47.942;9.442;2023-05-10T11:35:06;2.25;;;0.75;;
11486;SDS011;10510;47.942;9.442;2023-05-10T11:37:07;0.90;;;0.68;;
11486;SDS011;10510;47.942;9.442;2023-05-10T11:39:07;2.50;;;0.60;;
11486;SDS011;10510;47.942;9.442;2023-05-10T11:41:08;2.67;;;0.57;;
11486;SDS011;10510;47.942;9.442;2023-05-10T11:43:10;4.85;;;1.08;;
11486;SDS011;10510;47.942;9.442;2023-05-10T11:45:11;1.10;;;0.70;;
11486;SDS011;10510;47.942;9.442;2023-05-10T11:47:11;3.30;;;0.70;;
11486;SDS011;10510;47.942;9.442;2023-05-10T11:49:11;1.58;;;0.80;;
11486;SDS011;10510;47.942;9.442;2023-05-10T11:51:13;0.80;;;0.70;;
11486;SDS011;10510;47.942;9.442;2023-05-10T11:53:13;1.17;;;0.80;;
11486;SDS011;10510;47.942;9.442;2023-05-10T11:55:13;0.60;;;0.40;;
11486;SDS011;10510;47.942;9.442;2023-05-10T11:57:14;1.65;;;0.50;;
11486;SDS011;10510;47.942;9.442;2023-05-10T11:59:14;8.10;;;1.00;;
11486;SDS011;10510;47.942;9.442;2023-05-10T12:01:15;1.35;;;0.75;;
11486;SDS011;10510;47.942;9.442;2023-05-10T12:03:15;1.20;;;0.68;;
11486;SDS011;10510;47.942;9.442;2023-05-10T12:05:15;1.20;;;0.60;;
11486;SDS011;10510;47.942;9.442;2023-05-10T12:07:16;1.00;;;0.90;;
11486;SDS011;10510;47.942;9.442;2023-05-10T12:09:17;4.05;;;0.80;;
11486;SDS011;10510;47.942;9.442;2023-05-10T12:11:17;3.42;;;0.85;;
11486;SDS011;10510;47.942;9.442;2023-05-10T12:13:18;1.95;;;1.00;;
11486;SDS011;10510;47.942;9.442;2023-05-10T12:15:21;0.50;;;0.50;;
11486;SDS011;10510;47.942;9.442;2023-05-10T12:17:26;2.20;;;0.80;;
11486;SDS011;10510;47.942;9.442;2023-05-10T12:19:27;1.45;;;0.60;;
11486;SDS011;10510;47.942;9.442;2023-05-10T12:21:28;1.33;;;0.70;;
11486;SDS011;10510;47.942;9.442;2023-05-10T12:23:30;0.80;;;0.75;;
11486;SDS011;10510;47.942;9.442;2023-05-10T12:25:31;0.95;;;0.80;;
11486;SDS011;10510;47.942;9.442;2023-05-10T12:27:33;2.10;;;1.10;;
11486;SDS011;10510;47.942;9.442;2023-05-10T12:29:33;4.40;;;0.90;;
11486;SDS011;10510;47.942;9.442;2023-05-10T12:31:48;2.38;;;0.90;;
11486;SDS011;10510;47.942;9.442;2023-05-10T12:33:58;3.47;;;0.85;;
11486;SDS011;10510;47.942;9.442;2023-05-10T12:35:58;3.67;;;0.95;;
11486;SDS011;10510;47.942;9.442;2023-05-10T12:37:59;0.60;;;0.60;;